createdAt,value
2019-05-26T00:00:21.172Z,90.70
2019-05-26T00:01:21.172Z,89.28
2019-05-26T00:02:21.147Z,89.99
2019-05-26T00:03:21.138Z,90.70
2019-05-26T00:04:21.130Z,90.25
2019-05-26T00:05:21.133Z,89.24
2019-05-26T00:06:21.115Z,89.69
2019-05-26T00:07:30.155Z,89.69
2019-05-26T00:08:22.083Z,89.85
2019-05-26T00:09:21.079Z,89.44
2019-05-26T00:10:21.060Z,89.99
2019-05-26T00:11:21.064Z,89.34
2019-05-26T00:12:21.040Z,89.89
2019-05-26T00:13:21.030Z,89.79
2019-05-26T00:14:21.018Z,89.69
2019-05-26T00:15:21.011Z,89.89
2019-05-26T00:16:21.017Z,89.89
2019-05-26T00:17:20.990Z,90.30
2019-05-26T00:18:20.979Z,90.40
2019-05-26T00:19:20.964Z,90.40
2019-05-26T00:20:20.966Z,90.20
2019-05-26T00:21:20.970Z,89.99
2019-05-26T00:22:20.937Z,90.40
2019-05-26T00:23:20.928Z,90.81
2019-05-26T00:24:20.911Z,91.46
2019-05-26T00:25:20.901Z,90.95
2019-05-26T00:26:20.898Z,90.50
2019-05-26T00:27:20.893Z,90.44
2019-05-26T00:28:20.883Z,90.91
2019-05-26T00:29:20.859Z,90.75
2019-05-26T00:30:20.852Z,90.64
2019-05-26T00:31:20.836Z,90.55
2019-05-26T00:32:20.840Z,90.24
2019-05-26T00:33:20.816Z,90.55
2019-05-26T00:34:20.811Z,90.03
2019-05-26T00:35:20.793Z,90.44
2019-05-26T00:36:20.783Z,90.85
2019-05-26T00:37:20.791Z,91.05
2019-05-26T00:38:20.764Z,90.64
2019-05-26T00:39:20.751Z,90.64
2019-05-26T00:40:20.745Z,90.75
2019-05-26T00:41:20.730Z,90.75
2019-05-26T00:42:20.732Z,90.34
2019-05-26T00:43:20.708Z,90.55
2019-05-26T00:44:20.710Z,91.71
2019-05-26T00:45:20.689Z,91.30
2019-05-26T00:46:20.676Z,90.95
2019-05-26T00:47:20.679Z,91.46
2019-05-26T00:48:20.659Z,91.40
2019-05-26T00:49:20.643Z,91.50
2019-05-26T00:50:20.636Z,91.09
2019-05-26T00:51:20.622Z,91.81
2019-05-26T00:52:20.630Z,92.01
2019-05-26T00:53:20.603Z,91.61
2019-05-26T00:54:20.590Z,92.05
2019-05-26T00:55:20.579Z,92.46
2019-05-26T00:56:20.568Z,92.22
2019-05-26T00:57:20.577Z,92.46
2019-05-26T00:58:20.546Z,92.22
2019-05-26T00:59:20.536Z,92.77
2019-05-26T01:00:20.525Z,92.36
2019-05-26T01:01:20.515Z,91.96
2019-05-26T01:02:20.518Z,91.81
2019-05-26T01:03:20.500Z,91.85
2019-05-26T01:04:20.495Z,91.96
2019-05-26T01:05:20.472Z,91.96
2019-05-26T01:06:20.465Z,91.96
2019-05-26T01:07:20.463Z,91.75
2019-05-26T01:08:20.439Z,91.35
2019-05-26T01:09:20.435Z,91.65
2019-05-26T01:10:20.420Z,91.44
2019-05-26T01:11:20.407Z,91.55
2019-05-26T01:12:20.420Z,90.94
2019-05-26T01:13:20.390Z,90.63
2019-05-26T01:14:20.502Z,91.44
2019-05-26T01:15:20.371Z,91.03
2019-05-26T01:16:20.358Z,91.14
2019-05-26T01:17:20.343Z,91.35
2019-05-26T01:18:20.336Z,91.44
2019-05-26T01:19:20.322Z,91.03
2019-05-26T01:20:20.316Z,90.12
2019-05-26T01:21:20.310Z,90.53
2019-05-26T01:22:20.289Z,90.63
2019-05-26T01:23:20.284Z,90.01
2019-05-26T01:24:20.276Z,90.32
2019-05-26T01:25:20.257Z,90.32
2019-05-26T01:26:20.248Z,90.22
2019-05-26T01:27:20.236Z,90.47
2019-05-26T01:28:20.229Z,90.57
2019-05-26T01:29:20.214Z,90.01
2019-05-26T01:30:20.203Z,90.63
2019-05-26T01:31:20.195Z,90.77
2019-05-26T01:32:20.182Z,91.69
2019-05-26T01:33:20.175Z,91.18
2019-05-26T01:34:20.165Z,92.00
2019-05-26T01:35:20.152Z,92.00
2019-05-26T01:36:20.138Z,92.00
2019-05-26T01:37:20.128Z,92.55
2019-05-26T01:38:24.304Z,92.50
2019-05-26T01:39:20.106Z,92.50
2019-05-26T01:40:20.098Z,92.00
2019-05-26T01:41:20.086Z,92.20
2019-05-26T01:42:20.074Z,92.00
2019-05-26T01:43:20.068Z,92.00
2019-05-26T01:44:20.053Z,92.00
2019-05-26T01:45:20.041Z,91.94
2019-05-26T01:46:20.030Z,92.30
2019-05-26T01:47:20.034Z,92.24
2019-05-26T01:48:20.015Z,91.94
2019-05-26T01:49:20.002Z,92.04
2019-05-26T01:50:20.000Z,92.04
2019-05-26T01:51:19.976Z,91.94
2019-05-26T01:52:19.968Z,92.04
2019-05-26T01:53:19.965Z,92.35
2019-05-26T01:54:19.944Z,91.83
2019-05-26T01:55:19.937Z,91.94
2019-05-26T01:56:19.922Z,92.04
2019-05-26T01:57:19.911Z,91.28
2019-05-26T01:58:19.914Z,91.69
2019-05-26T01:59:19.893Z,91.53
2019-05-26T02:00:19.879Z,91.53
2019-05-26T02:01:19.874Z,91.43
2019-05-26T02:02:19.858Z,91.22
2019-05-26T02:03:19.942Z,91.63
2019-05-26T02:04:19.841Z,91.12
2019-05-26T02:05:19.826Z,91.12
2019-05-26T02:06:19.815Z,91.12
2019-05-26T02:07:19.809Z,91.33
2019-05-26T02:08:19.815Z,91.37
2019-05-26T02:09:19.782Z,91.63
2019-05-26T02:10:19.771Z,91.63
2019-05-26T02:11:19.770Z,91.53
2019-05-26T02:12:19.752Z,91.43
2019-05-26T02:13:19.757Z,91.53
2019-05-26T02:14:19.728Z,91.78
2019-05-26T02:15:19.719Z,92.04
2019-05-26T02:16:19.709Z,91.88
2019-05-26T02:17:19.699Z,92.19
2019-05-26T02:18:19.706Z,92.08
2019-05-26T02:19:19.689Z,92.08
2019-05-26T02:20:19.663Z,91.67
2019-05-26T02:21:19.653Z,91.43
2019-05-26T02:22:19.642Z,91.27
2019-05-26T02:23:19.654Z,91.06
2019-05-26T02:24:19.620Z,91.27
2019-05-26T02:25:19.613Z,91.67
2019-05-26T02:26:19.599Z,91.37
2019-05-26T02:27:19.590Z,91.37
2019-05-26T02:28:19.578Z,91.67
2019-05-26T02:29:19.580Z,91.78
2019-05-26T02:30:19.586Z,91.37
2019-05-26T02:31:19.572Z,91.16
2019-05-26T02:32:19.535Z,91.16
2019-05-26T02:33:19.530Z,91.67
2019-05-26T02:34:19.585Z,91.61
2019-05-26T02:35:19.506Z,91.61
2019-05-26T02:36:19.490Z,91.57
2019-05-26T02:37:19.494Z,91.47
2019-05-26T02:38:19.470Z,92.02
2019-05-26T02:39:19.469Z,92.13
2019-05-26T02:40:19.453Z,91.92
2019-05-26T02:41:19.438Z,92.13
2019-05-26T02:42:19.428Z,92.13
2019-05-26T02:43:19.424Z,92.13
2019-05-26T02:44:19.445Z,92.23
2019-05-26T02:45:19.399Z,92.13
2019-05-26T02:46:19.382Z,92.13
2019-05-26T02:47:19.374Z,92.74
2019-05-26T02:48:19.375Z,92.64
2019-05-26T02:49:19.374Z,92.54
2019-05-26T02:50:19.371Z,92.74
2019-05-26T02:51:19.331Z,92.43
2019-05-26T02:52:19.322Z,92.23
2019-05-26T02:53:24.306Z,92.23
2019-05-26T02:54:20.330Z,91.92
2019-05-26T02:55:19.287Z,92.33
2019-05-26T02:56:19.276Z,92.13
2019-05-26T02:57:19.265Z,92.23
2019-05-26T02:58:19.254Z,91.72
2019-05-26T02:59:19.257Z,91.66
2019-05-26T03:00:19.239Z,91.61
2019-05-26T03:01:19.222Z,91.00
2019-05-26T03:02:19.213Z,90.80
2019-05-26T03:03:19.205Z,90.70
2019-05-26T03:04:19.201Z,91.31
2019-05-26T03:05:19.180Z,91.52
2019-05-26T03:06:19.186Z,91.72
2019-05-26T03:07:19.159Z,91.56
2019-05-26T03:08:19.147Z,91.00
2019-05-26T03:09:23.354Z,91.96
2019-05-26T03:10:19.128Z,91.86
2019-05-26T03:11:19.127Z,91.56
2019-05-26T03:12:19.113Z,91.66
2019-05-26T03:13:19.093Z,91.66
2019-05-26T03:14:19.095Z,91.25
2019-05-26T03:15:19.073Z,91.56
2019-05-26T03:16:19.071Z,91.56
2019-05-26T03:17:19.049Z,92.17
2019-05-26T03:18:19.051Z,93.03
2019-05-26T03:19:19.055Z,92.62
2019-05-26T03:20:19.021Z,92.52
2019-05-26T03:21:19.006Z,92.47
2019-05-26T03:22:18.997Z,92.88
2019-05-26T03:23:18.996Z,92.62
2019-05-26T03:24:18.979Z,92.58
2019-05-26T03:25:18.978Z,92.37
2019-05-26T03:26:18.953Z,92.78
2019-05-26T03:27:18.944Z,92.88
2019-05-26T03:28:18.934Z,92.88
2019-05-26T03:29:18.924Z,92.68
2019-05-26T03:30:18.947Z,92.78
2019-05-26T03:31:18.913Z,92.58
2019-05-26T03:32:18.889Z,92.83
2019-05-26T03:33:18.878Z,92.93
2019-05-26T03:34:18.868Z,92.93
2019-05-26T03:35:18.877Z,92.62
2019-05-26T03:36:18.859Z,93.03
2019-05-26T03:37:18.843Z,92.58
2019-05-26T03:38:18.824Z,92.58
2019-05-26T03:39:18.816Z,92.62
2019-05-26T03:40:18.818Z,92.58
2019-05-26T03:41:18.792Z,92.47
2019-05-26T03:42:18.783Z,92.72
2019-05-26T03:43:18.770Z,93.03
2019-05-26T03:44:18.759Z,92.93
2019-05-26T03:45:18.764Z,92.72
2019-05-26T03:46:18.742Z,92.68
2019-05-26T03:47:18.743Z,92.83
2019-05-26T03:48:18.731Z,92.93
2019-05-26T03:49:18.707Z,92.72
2019-05-26T03:50:18.705Z,92.72
2019-05-26T03:51:18.689Z,92.27
2019-05-26T03:52:18.675Z,92.62
2019-05-26T03:53:18.687Z,92.88
2019-05-26T03:54:18.653Z,92.83
2019-05-26T03:55:18.651Z,92.72
2019-05-26T03:56:18.647Z,92.62
2019-05-26T03:57:18.625Z,92.78
2019-05-26T03:58:18.611Z,92.68
2019-05-26T03:59:18.598Z,92.62
2019-05-26T04:00:18.599Z,92.78
2019-05-26T04:01:18.582Z,92.93
2019-05-26T04:02:18.566Z,93.91
2019-05-26T04:03:18.556Z,94.06
2019-05-26T04:04:18.552Z,93.74
2019-05-26T04:05:18.563Z,93.44
2019-05-26T04:06:18.530Z,93.54
2019-05-26T04:07:18.516Z,93.44
2019-05-26T04:08:18.504Z,93.50
2019-05-26T04:09:18.495Z,93.33
2019-05-26T04:10:18.492Z,93.54
2019-05-26T04:11:18.486Z,93.13
2019-05-26T04:12:18.467Z,93.19
2019-05-26T04:13:18.458Z,93.24
2019-05-26T04:14:18.437Z,93.19
2019-05-26T04:15:18.449Z,93.65
2019-05-26T04:16:18.436Z,93.54
2019-05-26T04:17:18.404Z,94.01
2019-05-26T04:18:18.396Z,94.36
2019-05-26T04:19:18.382Z,94.11
2019-05-26T04:20:18.381Z,94.42
2019-05-26T04:21:18.379Z,94.11
2019-05-26T04:22:18.356Z,94.42
2019-05-26T04:23:18.343Z,94.32
2019-05-26T04:24:18.329Z,94.21
2019-05-26T04:25:18.319Z,93.70
2019-05-26T04:26:18.324Z,93.91
2019-05-26T04:27:18.296Z,94.11
2019-05-26T04:28:18.286Z,93.91
2019-05-26T04:29:18.279Z,94.01
2019-05-26T04:30:18.282Z,93.91
2019-05-26T04:31:18.265Z,94.01
2019-05-26T04:32:18.255Z,93.70
2019-05-26T04:33:18.234Z,93.91
2019-05-26T04:34:18.229Z,94.11
2019-05-26T04:35:18.213Z,94.01
2019-05-26T04:36:18.214Z,93.80
2019-05-26T04:37:18.189Z,94.11
2019-05-26T04:38:18.189Z,94.07
2019-05-26T04:39:18.166Z,94.32
2019-05-26T04:40:26.281Z,94.01
2019-05-26T04:41:19.159Z,93.96
2019-05-26T04:42:18.143Z,93.55
2019-05-26T04:43:18.123Z,93.45
2019-05-26T04:44:18.112Z,93.80
2019-05-26T04:45:18.103Z,94.17
2019-05-26T04:46:18.162Z,94.07
2019-05-26T04:47:18.086Z,93.55
2019-05-26T04:48:18.070Z,94.07
2019-05-26T04:49:18.070Z,93.96
2019-05-26T04:50:18.050Z,93.76
2019-05-26T04:51:18.049Z,93.96
2019-05-26T04:52:18.025Z,94.07
2019-05-26T04:53:18.016Z,94.17
2019-05-26T04:54:18.023Z,94.27
2019-05-26T04:55:17.995Z,94.48
2019-05-26T04:56:17.997Z,94.48
2019-05-26T04:57:17.979Z,94.07
2019-05-26T04:58:17.965Z,94.07
2019-05-26T04:59:17.951Z,93.86
2019-05-26T05:00:17.950Z,94.07
2019-05-26T05:01:17.944Z,94.37
2019-05-26T05:02:17.918Z,94.17
2019-05-26T05:03:17.908Z,94.37
2019-05-26T05:04:17.896Z,94.07
2019-05-26T05:05:17.889Z,94.12
2019-05-26T05:06:17.900Z,93.86
2019-05-26T05:07:17.867Z,93.76
2019-05-26T05:08:17.857Z,94.07
2019-05-26T05:09:17.864Z,93.51
2019-05-26T05:10:17.834Z,94.12
2019-05-26T05:11:17.825Z,93.92
2019-05-26T05:12:17.865Z,94.07
2019-05-26T05:13:17.799Z,93.82
2019-05-26T05:14:17.790Z,93.92
2019-05-26T05:15:17.796Z,93.82
2019-05-26T05:16:17.767Z,94.02
2019-05-26T05:17:17.771Z,94.02
2019-05-26T05:18:17.753Z,94.02
2019-05-26T05:19:17.742Z,94.02
2019-05-26T05:20:17.726Z,94.12
2019-05-26T05:21:17.714Z,94.08
2019-05-26T05:22:17.713Z,93.51
2019-05-26T05:23:17.692Z,94.02
2019-05-26T05:24:17.688Z,93.57
2019-05-26T05:25:17.678Z,93.98
2019-05-26T05:26:17.669Z,93.62
2019-05-26T05:27:17.801Z,93.31
2019-05-26T05:28:17.638Z,93.26
2019-05-26T05:29:17.648Z,93.57
2019-05-26T05:30:17.618Z,93.82
2019-05-26T05:31:17.606Z,93.88
2019-05-26T05:32:17.608Z,93.57
2019-05-26T05:33:17.605Z,93.98
2019-05-26T05:34:17.574Z,93.37
2019-05-26T05:35:17.563Z,93.67
2019-05-26T05:36:17.553Z,94.08
2019-05-26T05:37:17.574Z,93.57
2019-05-26T05:38:17.531Z,93.98
2019-05-26T05:39:17.541Z,93.57
2019-05-26T05:40:17.509Z,93.43
2019-05-26T05:41:17.527Z,93.63
2019-05-26T05:42:17.499Z,93.52
2019-05-26T05:43:17.540Z,93.88
2019-05-26T05:44:17.466Z,93.52
2019-05-26T05:45:17.454Z,92.81
2019-05-26T05:46:17.445Z,93.02
2019-05-26T05:47:17.449Z,93.12
2019-05-26T05:48:17.422Z,93.02
2019-05-26T05:49:17.413Z,92.91
2019-05-26T05:50:17.415Z,92.50
2019-05-26T05:51:17.535Z,92.41
2019-05-26T05:54:10.140Z,92.77
2019-05-26T05:55:10.133Z,92.81
2019-05-26T05:56:10.102Z,92.36
2019-05-26T05:57:10.088Z,92.57
2019-05-26T05:58:10.069Z,92.46
2019-05-26T05:59:10.056Z,92.26
2019-05-26T06:00:10.047Z,92.67
2019-05-26T06:01:10.048Z,92.77
2019-05-26T06:02:10.050Z,92.67
2019-05-26T06:03:10.078Z,92.57
2019-05-26T06:04:10.003Z,91.81
2019-05-26T06:05:09.997Z,91.91
2019-05-26T06:06:09.985Z,91.81
2019-05-26T06:07:09.973Z,92.46
2019-05-26T06:08:09.963Z,92.32
2019-05-26T06:09:09.960Z,92.36
2019-05-26T06:10:09.941Z,92.57
2019-05-26T06:11:16.354Z,92.57
2019-05-26T06:12:10.926Z,92.42
2019-05-26T06:13:09.923Z,92.22
2019-05-26T06:14:09.896Z,92.42
2019-05-26T06:15:09.893Z,92.63
2019-05-26T06:16:09.874Z,92.11
2019-05-26T06:17:10.684Z,92.42
2019-05-26T06:18:09.856Z,92.32
2019-05-26T06:19:09.846Z,92.22
2019-05-26T06:20:09.832Z,92.32
2019-05-26T06:21:09.826Z,92.18
2019-05-26T06:22:09.811Z,92.27
2019-05-26T06:23:09.803Z,92.38
2019-05-26T06:24:09.790Z,92.27
2019-05-26T06:25:09.785Z,92.38
2019-05-26T06:26:09.771Z,92.68
2019-05-26T06:27:09.772Z,92.79
2019-05-26T06:28:09.749Z,92.68
2019-05-26T06:29:09.736Z,92.79
2019-05-26T06:30:09.729Z,92.94
2019-05-26T06:31:09.712Z,93.05
2019-05-26T06:32:10.156Z,92.44
2019-05-26T06:33:09.711Z,92.74
2019-05-26T06:34:09.683Z,92.33
2019-05-26T06:35:09.671Z,92.44
2019-05-26T06:36:09.659Z,92.54
2019-05-26T06:37:09.650Z,92.54
2019-05-26T06:38:09.649Z,92.29
2019-05-26T06:39:09.627Z,91.83
2019-05-26T06:40:09.618Z,91.62
2019-05-26T06:41:09.609Z,90.86
2019-05-26T06:42:12.783Z,91.38
2019-05-26T06:43:09.594Z,91.68
2019-05-26T06:44:09.575Z,91.58
2019-05-26T06:45:09.561Z,91.58
2019-05-26T06:46:09.563Z,91.68
2019-05-26T06:47:09.545Z,90.66
2019-05-26T06:48:09.550Z,90.31
2019-05-26T06:49:09.518Z,89.81
2019-05-26T06:50:09.527Z,89.50
2019-05-26T06:51:09.500Z,89.20
2019-05-26T06:52:09.486Z,89.30
2019-05-26T06:53:09.488Z,89.40
2019-05-26T06:54:09.464Z,89.26
2019-05-26T06:55:09.454Z,89.20
2019-05-26T06:56:09.445Z,89.26
2019-05-26T06:57:09.435Z,88.95
2019-05-26T06:58:09.435Z,88.54
2019-05-26T06:59:09.419Z,88.65
2019-05-26T07:00:09.406Z,88.04
2019-05-26T07:01:09.391Z,87.43
2019-05-26T07:02:09.383Z,86.82
2019-05-26T07:03:09.379Z,86.61
2019-05-26T07:04:09.356Z,86.27
2019-05-26T07:05:09.345Z,86.16
2019-05-26T07:06:09.338Z,84.54
2019-05-26T07:07:09.323Z,85.15
2019-05-26T07:08:09.312Z,85.86
2019-05-26T07:09:09.312Z,86.22
2019-05-26T07:10:09.292Z,84.91
2019-05-26T07:11:09.279Z,84.60
2019-05-26T07:12:09.274Z,84.97
2019-05-26T07:13:09.259Z,85.17
2019-05-26T07:14:09.260Z,84.56
2019-05-26T07:15:09.275Z,83.65
2019-05-26T07:16:09.365Z,83.85
2019-05-26T07:17:09.216Z,82.64
2019-05-26T07:18:09.212Z,81.62
2019-05-26T07:19:09.203Z,81.41
2019-05-26T07:20:09.408Z,82.53
2019-05-26T07:21:09.171Z,83.45
2019-05-26T07:22:09.161Z,83.81
2019-05-26T07:23:09.531Z,83.24
2019-05-26T07:24:09.153Z,81.78
2019-05-26T07:25:09.131Z,81.68
2019-05-26T07:26:09.172Z,81.88
2019-05-26T07:27:09.173Z,81.68
2019-05-26T07:28:09.097Z,81.68
2019-05-26T07:29:09.096Z,80.83
2019-05-26T07:30:09.078Z,79.85
2019-05-26T07:31:09.063Z,80.12
2019-05-26T07:32:09.056Z,80.12
2019-05-26T07:33:09.044Z,80.83
2019-05-26T07:34:09.048Z,79.21
2019-05-26T07:35:09.049Z,79.07
2019-05-26T07:36:09.014Z,78.06
2019-05-26T07:37:08.998Z,77.86
2019-05-26T07:38:08.990Z,78.46
2019-05-26T07:39:08.989Z,78.66
2019-05-26T07:40:08.968Z,77.86
2019-05-26T07:41:08.958Z,78.77
2019-05-26T07:42:11.051Z,78.83
2019-05-26T07:43:08.935Z,78.56
2019-05-26T07:44:08.933Z,78.63
2019-05-26T07:45:08.925Z,79.24
2019-05-26T07:46:08.902Z,79.54
2019-05-26T07:47:08.967Z,79.54
2019-05-26T07:48:08.896Z,77.41
2019-05-26T07:49:08.887Z,78.12
2019-05-26T07:50:08.860Z,77.82
2019-05-26T07:51:08.850Z,78.33
2019-05-26T07:52:08.837Z,78.02
2019-05-26T07:53:08.825Z,77.82
2019-05-26T07:54:24.597Z,78.08
2019-05-26T07:55:09.810Z,78.39
2019-05-26T07:56:08.799Z,77.58
2019-05-26T07:57:08.784Z,76.77
2019-05-26T07:58:08.772Z,77.68
2019-05-26T07:59:08.771Z,77.37
2019-05-26T08:00:08.769Z,77.07
2019-05-26T08:01:08.742Z,76.36
2019-05-26T08:02:08.728Z,76.06
2019-05-26T08:03:08.717Z,76.06
2019-05-26T08:04:08.731Z,75.76
2019-05-26T08:05:08.708Z,76.83
2019-05-26T08:06:08.717Z,75.62
2019-05-26T08:07:08.738Z,75.42
2019-05-26T08:08:13.213Z,75.31
2019-05-26T08:09:09.678Z,75.07
2019-05-26T08:10:08.658Z,74.00
2019-05-26T08:11:08.631Z,74.67
2019-05-26T08:12:24.590Z,75.28
2019-05-26T08:13:09.611Z,74.98
2019-05-26T08:14:08.611Z,75.18
2019-05-26T08:15:08.592Z,74.57
2019-05-26T08:16:08.577Z,74.37
2019-05-26T08:17:08.565Z,75.24
2019-05-26T08:18:08.559Z,74.74
2019-05-26T08:19:08.589Z,74.63
2019-05-26T08:20:08.535Z,74.33
2019-05-26T08:21:08.523Z,75.75
2019-05-26T08:22:08.513Z,75.71
2019-05-26T08:23:08.502Z,75.31
2019-05-26T08:24:08.523Z,73.99
2019-05-26T08:25:08.483Z,74.40
2019-05-26T08:26:08.473Z,74.40
2019-05-26T08:27:08.458Z,74.10
2019-05-26T08:28:08.448Z,74.50
2019-05-26T08:29:08.438Z,74.50
2019-05-26T08:30:08.451Z,73.96
2019-05-26T08:31:08.416Z,74.06
2019-05-26T08:32:08.406Z,73.15
2019-05-26T08:33:08.409Z,73.52
2019-05-26T08:34:08.383Z,73.86
2019-05-26T08:35:08.385Z,71.91
2019-05-26T08:36:08.364Z,71.70
2019-05-26T08:37:08.351Z,71.33
2019-05-26T08:38:08.340Z,71.60
2019-05-26T08:39:08.331Z,71.91
2019-05-26T08:40:08.341Z,72.31
2019-05-26T08:41:08.314Z,71.10
2019-05-26T08:42:08.298Z,71.40
2019-05-26T08:43:08.286Z,70.69
2019-05-26T08:44:08.279Z,70.39
2019-05-26T08:45:08.353Z,71.30
2019-05-26T08:46:08.266Z,70.66
2019-05-26T08:47:08.255Z,70.46
2019-05-26T08:48:08.235Z,70.66
2019-05-26T08:49:08.228Z,70.22
2019-05-26T08:50:08.224Z,69.72
2019-05-26T08:51:08.200Z,68.71
2019-05-26T08:52:08.190Z,68.74
2019-05-26T08:53:08.180Z,68.51
2019-05-26T08:54:08.183Z,69.42
2019-05-26T08:55:08.170Z,69.42
2019-05-26T08:56:08.147Z,66.79
2019-05-26T08:57:08.137Z,66.25
2019-05-26T08:58:08.143Z,66.36
2019-05-26T08:59:08.115Z,64.54
2019-05-26T09:00:08.116Z,65.32
2019-05-26T09:01:08.100Z,66.22
2019-05-26T09:02:08.086Z,66.33
2019-05-26T09:03:08.087Z,66.33
2019-05-26T09:04:08.060Z,66.13
2019-05-26T09:05:08.599Z,67.71
2019-05-26T09:06:08.041Z,68.31
2019-05-26T09:07:08.034Z,66.30
2019-05-26T09:08:08.415Z,64.38
2019-05-26T09:09:08.008Z,63.37
2019-05-26T09:10:08.007Z,63.17
2019-05-26T09:11:07.985Z,63.95
2019-05-26T09:12:07.977Z,64.95
2019-05-26T09:13:07.964Z,63.95
2019-05-26T09:14:07.952Z,62.64
2019-05-26T09:15:07.955Z,61.90
2019-05-26T09:16:07.933Z,62.21
2019-05-26T09:17:07.920Z,61.80
2019-05-26T09:18:07.907Z,62.21
2019-05-26T09:19:07.897Z,61.90
2019-05-26T09:20:11.221Z,60.67
2019-05-26T09:21:07.875Z,61.37
2019-05-26T09:22:07.870Z,62.30
2019-05-26T09:23:07.857Z,61.67
2019-05-26T09:24:07.848Z,59.66
2019-05-26T09:25:08.015Z,61.07
2019-05-26T09:26:07.826Z,60.87
2019-05-26T09:27:07.816Z,60.77
2019-05-26T09:28:07.803Z,61.74
2019-05-26T09:29:07.790Z,59.94
2019-05-26T09:30:07.855Z,59.74
2019-05-26T09:31:07.817Z,59.74
2019-05-26T09:32:07.779Z,60.00
2019-05-26T09:33:07.748Z,59.30
2019-05-26T09:34:07.849Z,58.80
2019-05-26T09:35:07.758Z,59.88
2019-05-26T09:36:07.714Z,59.98
2019-05-26T09:37:07.704Z,60.08
2019-05-26T09:38:07.697Z,60.58
2019-05-26T09:39:07.693Z,59.78
2019-05-26T09:40:07.741Z,59.17
2019-05-26T09:41:07.660Z,59.14
2019-05-26T09:42:07.649Z,60.05
2019-05-26T09:43:15.784Z,59.12
2019-05-26T09:44:08.629Z,59.12
2019-05-26T09:45:07.624Z,58.72
2019-05-26T09:46:07.609Z,58.69
2019-05-26T09:47:07.594Z,56.48
2019-05-26T09:48:07.583Z,57.26
2019-05-26T09:49:07.573Z,56.73
2019-05-26T09:50:07.566Z,56.43
2019-05-26T09:51:07.586Z,56.40
2019-05-26T09:52:07.574Z,58.33
2019-05-26T09:53:07.641Z,59.33
2019-05-26T09:54:07.548Z,58.23
2019-05-26T09:55:07.559Z,57.83
2019-05-26T09:56:07.509Z,56.60
2019-05-26T09:57:07.492Z,56.40
2019-05-26T09:58:07.479Z,56.70
2019-05-26T09:59:07.466Z,56.40
2019-05-26T10:00:07.553Z,57.98
2019-05-26T10:01:07.455Z,56.50
2019-05-26T10:02:07.490Z,56.70
2019-05-26T10:03:07.428Z,56.40
2019-05-26T10:04:07.411Z,55.87
2019-05-26T10:05:07.403Z,55.98
2019-05-26T10:06:07.404Z,55.67
2019-05-26T10:07:11.064Z,54.44
2019-05-26T10:08:08.367Z,55.22
2019-05-26T10:09:07.373Z,54.02
2019-05-26T10:10:07.349Z,53.62
2019-05-26T10:11:07.349Z,53.62
2019-05-26T10:12:07.326Z,53.39
2019-05-26T10:13:07.322Z,53.07
2019-05-26T10:14:07.306Z,53.47
2019-05-26T10:15:07.295Z,53.67
2019-05-26T10:16:07.296Z,53.97
2019-05-26T10:17:07.274Z,53.94
2019-05-26T10:18:07.264Z,53.72
2019-05-26T10:19:07.253Z,53.12
2019-05-26T10:20:07.245Z,52.79
2019-05-26T10:21:07.247Z,52.99
2019-05-26T10:22:07.222Z,52.49
2019-05-26T10:23:07.208Z,52.17
2019-05-26T10:24:07.238Z,51.27
2019-05-26T10:25:07.190Z,52.57
2019-05-26T10:26:07.192Z,52.67
2019-05-26T10:27:07.166Z,50.97
2019-05-26T10:28:07.154Z,50.85
2019-05-26T10:29:07.144Z,50.37
2019-05-26T10:30:07.131Z,51.97
2019-05-26T10:31:07.133Z,51.89
2019-05-26T10:32:07.111Z,52.00
2019-05-26T10:33:07.099Z,52.22
2019-05-26T10:34:07.088Z,51.84
2019-05-26T10:35:07.076Z,52.37
2019-05-26T10:36:07.086Z,52.27
2019-05-26T10:37:07.054Z,53.07
2019-05-26T10:38:07.044Z,52.37
2019-05-26T10:39:07.033Z,52.37
2019-05-26T10:40:07.025Z,52.84
2019-05-26T10:41:07.029Z,52.14
2019-05-26T10:42:07.001Z,52.34
2019-05-26T10:43:06.992Z,51.84
2019-05-26T10:44:06.979Z,51.34
2019-05-26T10:45:06.968Z,50.74
2019-05-26T10:46:06.969Z,51.84
2019-05-26T10:47:06.945Z,51.04
2019-05-26T10:48:06.937Z,50.52
2019-05-26T10:49:06.923Z,51.79
2019-05-26T10:50:06.921Z,52.19
2019-05-26T10:51:07.129Z,52.39
2019-05-26T10:52:06.895Z,50.70
2019-05-26T10:53:06.881Z,49.60
2019-05-26T10:54:06.875Z,50.79
2019-05-26T10:55:06.879Z,51.29
2019-05-26T10:56:06.850Z,51.59
2019-05-26T10:57:06.849Z,51.59
2019-05-26T10:58:06.826Z,52.19
2019-05-26T10:59:06.817Z,51.50
2019-05-26T11:00:06.808Z,51.10
2019-05-26T11:01:06.794Z,50.40
2019-05-26T11:02:06.797Z,50.90
2019-05-26T11:03:06.773Z,51.20
2019-05-26T11:04:06.762Z,52.39
2019-05-26T11:05:06.757Z,50.90
2019-05-26T11:06:06.743Z,51.29
2019-05-26T11:07:06.743Z,50.49
2019-05-26T11:08:06.720Z,51.52
2019-05-26T11:09:06.709Z,50.82
2019-05-26T11:10:06.699Z,51.12
2019-05-26T11:11:06.687Z,52.12
2019-05-26T11:12:06.688Z,51.22
2019-05-26T11:13:06.667Z,50.92
2019-05-26T11:14:06.659Z,51.12
2019-05-26T11:15:06.645Z,50.20
2019-05-26T11:16:06.639Z,50.99
2019-05-26T11:17:06.635Z,50.17
2019-05-26T11:18:06.612Z,49.45
2019-05-26T11:19:06.602Z,49.63
2019-05-26T11:20:06.591Z,48.83
2019-05-26T11:21:06.586Z,47.61
2019-05-26T11:22:06.585Z,48.61
2019-05-26T11:23:06.560Z,47.71
2019-05-26T11:24:06.549Z,47.69
2019-05-26T11:25:06.539Z,48.68
2019-05-26T11:26:06.527Z,47.29
2019-05-26T11:27:10.621Z,47.39
2019-05-26T11:28:07.562Z,47.29
2019-05-26T11:29:06.496Z,47.39
2019-05-26T11:30:06.516Z,48.86
2019-05-26T11:31:06.475Z,47.84
2019-05-26T11:32:06.476Z,47.92
2019-05-26T11:33:06.456Z,47.40
2019-05-26T11:34:06.477Z,47.50
2019-05-26T11:35:06.432Z,46.88
2019-05-26T11:36:06.421Z,44.70
2019-05-26T11:37:06.423Z,44.99
2019-05-26T11:38:06.401Z,45.29
2019-05-26T11:39:06.389Z,46.19
2019-05-26T11:40:06.379Z,46.19
2019-05-26T11:41:06.367Z,45.59
2019-05-26T11:42:13.246Z,45.56
2019-05-26T11:43:16.142Z,44.77
2019-05-26T11:44:17.468Z,44.25
2019-05-26T11:45:07.326Z,44.63
2019-05-26T11:46:06.315Z,44.63
2019-05-26T11:47:06.319Z,44.21
2019-05-26T11:48:06.296Z,44.59
2019-05-26T11:49:06.282Z,42.33
2019-05-26T11:50:06.271Z,44.49
2019-05-26T11:51:06.263Z,42.52
2019-05-26T11:52:06.391Z,43.02
2019-05-26T11:53:06.242Z,43.32
2019-05-26T11:54:06.229Z,42.92
2019-05-26T11:55:06.219Z,42.03
2019-05-26T11:56:06.210Z,43.12
2019-05-26T11:57:06.217Z,42.92
2019-05-26T11:58:06.193Z,42.85
2019-05-26T11:59:06.177Z,42.57
2019-05-26T12:00:06.201Z,43.28
2019-05-26T12:01:06.155Z,44.37
2019-05-26T12:02:06.166Z,43.68
2019-05-26T12:03:06.134Z,43.01
2019-05-26T12:04:06.124Z,43.38
2019-05-26T12:05:06.116Z,43.40
2019-05-26T12:06:06.104Z,43.32
2019-05-26T12:07:06.092Z,43.32
2019-05-26T12:08:06.086Z,43.02
2019-05-26T12:09:06.071Z,44.22
2019-05-26T12:10:06.065Z,44.52
2019-05-26T12:11:06.050Z,44.52
2019-05-26T12:12:06.044Z,44.00
2019-05-26T12:13:06.033Z,44.48
2019-05-26T12:14:06.019Z,43.36
2019-05-26T12:15:06.008Z,42.05
2019-05-26T12:16:05.997Z,42.43
2019-05-26T12:17:05.990Z,42.82
2019-05-26T12:18:05.984Z,42.52
2019-05-26T12:19:05.965Z,42.43
2019-05-26T12:20:05.972Z,41.93
2019-05-26T12:21:05.945Z,42.52
2019-05-26T12:22:05.947Z,41.93
2019-05-26T12:23:05.927Z,41.33
2019-05-26T12:24:05.916Z,41.16
2019-05-26T12:25:05.902Z,41.36
2019-05-26T12:26:05.892Z,42.63
2019-05-26T12:27:05.881Z,40.31
2019-05-26T12:28:05.875Z,38.76
2019-05-26T12:29:05.860Z,38.39
2019-05-26T12:30:05.851Z,36.43
2019-05-26T12:31:05.838Z,35.41
2019-05-26T12:32:05.829Z,34.86
2019-05-26T12:33:05.821Z,36.94
2019-05-26T12:34:05.811Z,37.26
2019-05-26T12:35:05.803Z,36.78
2019-05-26T12:36:05.789Z,36.30
2019-05-26T12:37:05.778Z,32.53
2019-05-26T12:38:05.770Z,30.68
2019-05-26T12:39:05.767Z,30.42
2019-05-26T12:40:05.747Z,29.24
2019-05-26T12:41:05.735Z,28.53
2019-05-26T12:42:05.728Z,27.40
2019-05-26T12:43:05.718Z,27.28
2019-05-26T12:44:05.705Z,26.33
2019-05-26T12:45:05.698Z,28.36
2019-05-26T12:46:05.685Z,29.24
2019-05-26T12:47:05.679Z,31.45
2019-05-26T12:48:05.681Z,33.17
2019-05-26T12:49:05.657Z,33.22
2019-05-26T12:50:05.649Z,35.69
2019-05-26T12:51:05.638Z,35.43
2019-05-26T12:52:05.626Z,36.02
2019-05-26T12:53:05.628Z,36.04
2019-05-26T12:54:05.609Z,34.28